createdAt,value
2022-07-29T00:00:15.703Z,1017.422717
2022-07-29T00:05:15.827Z,1017.339547
2022-07-29T00:10:15.787Z,1017.283541
2022-07-29T00:15:18.330Z,1017.260665
2022-07-29T00:20:18.443Z,1017.229865
2022-07-29T00:25:18.266Z,1017.183262
2022-07-29T00:30:18.293Z,1017.178029
2022-07-29T00:35:18.541Z,1017.110182
2022-07-29T00:40:18.393Z,1017.011343
2022-07-29T00:45:18.438Z,1016.900856
2022-07-29T00:50:18.447Z,1016.807898
2022-07-29T00:55:18.281Z,1016.775547
2022-07-29T01:00:18.407Z,1016.717071
2022-07-29T01:05:18.267Z,1016.658901
2022-07-29T01:10:18.274Z,1016.620352
2022-07-29T01:15:18.250Z,1016.634444
2022-07-29T01:20:18.341Z,1016.660747
2022-07-29T01:25:18.465Z,1016.639141
2022-07-29T01:30:18.291Z,1016.552408
2022-07-29T01:35:18.222Z,1016.550832
2022-07-29T01:40:18.247Z,1016.533757
2022-07-29T01:45:18.227Z,1016.453105
2022-07-29T01:50:18.406Z,1016.404662
2022-07-29T01:55:18.289Z,1016.405952
2022-07-29T02:00:18.310Z,1016.402339
2022-07-29T02:05:18.395Z,1016.392821
2022-07-29T02:10:18.296Z,1016.357282
2022-07-29T02:15:18.265Z,1016.300634
2022-07-29T02:20:18.319Z,1016.237812
2022-07-29T02:25:18.222Z,1016.219568
2022-07-29T02:30:18.244Z,1016.150327
2022-07-29T02:35:18.221Z,1016.116859
2022-07-29T02:40:18.267Z,1016.166079
2022-07-29T02:45:18.291Z,1016.129639
2022-07-29T02:50:18.291Z,1016.152867
2022-07-29T02:55:18.265Z,1016.143295
2022-07-29T03:00:18.291Z,1016.152867
2022-07-29T03:05:18.524Z,1016.141253
2022-07-29T03:10:18.308Z,1016.101526
2022-07-29T03:15:18.561Z,1016.028424
2022-07-29T03:20:18.419Z,1016.068164
2022-07-29T03:25:18.228Z,1016.064014
2022-07-29T03:30:22.112Z,1016.058252
2022-07-29T03:35:18.211Z,1016.084937
2022-07-29T03:40:18.190Z,1016.048575
2022-07-29T03:45:18.229Z,1016.041610
2022-07-29T03:50:18.211Z,1016.026526
2022-07-29T03:55:18.226Z,1016.054731
2022-07-29T04:00:18.453Z,1016.080726
2022-07-29T04:05:18.298Z,1016.072924
2022-07-29T04:10:30.134Z,1016.067825
2022-07-29T04:15:18.260Z,1016.061207
2022-07-29T04:20:18.415Z,1016.041282
2022-07-29T04:25:18.328Z,1016.048558
2022-07-29T04:30:18.426Z,1016.067613
2022-07-29T04:35:18.230Z,1016.045169
2022-07-29T04:40:18.493Z,1016.076967
2022-07-29T04:45:22.269Z,1016.023753
2022-07-29T04:50:18.375Z,1016.042771
2022-07-29T04:55:18.294Z,1016.041841
2022-07-29T05:00:18.125Z,1016.023732
2022-07-29T05:05:18.366Z,1015.967623
2022-07-29T05:10:18.388Z,1015.968238
2022-07-29T05:15:18.187Z,1015.916352
2022-07-29T05:20:18.168Z,1015.877935
2022-07-29T05:25:23.171Z,1015.875795
2022-07-29T05:30:15.721Z,1015.911786
2022-07-29T05:35:15.749Z,1015.885689
2022-07-29T05:40:15.820Z,1015.896599
2022-07-29T05:45:15.679Z,1015.895948
2022-07-29T05:50:15.907Z,1015.862345
2022-07-29T05:55:15.627Z,1015.807012
2022-07-29T06:00:15.708Z,1015.812696
2022-07-29T06:05:17.038Z,1015.812696
2022-07-29T06:10:15.663Z,1015.783995
2022-07-29T06:15:15.719Z,1015.752620
2022-07-29T06:20:15.821Z,1015.727139
2022-07-29T06:25:15.664Z,1015.779460
2022-07-29T06:30:15.762Z,1015.731091
2022-07-29T06:35:53.134Z,1015.709273
2022-07-29T06:40:15.648Z,1015.695492
2022-07-29T06:45:15.732Z,1015.758371
2022-07-29T06:50:15.895Z,1015.726776
2022-07-29T06:55:25.330Z,1015.765017
2022-07-29T07:00:15.873Z,1015.749934
2022-07-29T07:05:15.659Z,1015.743218
2022-07-29T07:10:16.338Z,1015.703071
2022-07-29T07:15:15.714Z,1015.619024
2022-07-29T07:20:15.733Z,1015.589138
2022-07-29T07:25:15.653Z,1015.485156
2022-07-29T07:30:15.709Z,1015.441494
2022-07-29T07:35:15.637Z,1015.387384
2022-07-29T07:40:18.902Z,1015.374675
2022-07-29T07:45:16.277Z,1015.321261
2022-07-29T07:50:19.068Z,1015.298536
2022-07-29T07:55:15.698Z,1015.148635
2022-07-29T08:00:15.708Z,1015.085717
2022-07-29T08:05:15.692Z,1015.081387
2022-07-29T08:10:15.996Z,1014.992177
2022-07-29T08:15:15.660Z,1014.888662
2022-07-29T08:20:15.571Z,1014.914256
2022-07-29T08:25:15.616Z,1014.995857
2022-07-29T08:30:15.993Z,1015.097907
2022-07-29T08:35:15.625Z,1015.147564
2022-07-29T08:40:15.608Z,1015.105236
2022-07-29T08:45:15.946Z,1015.046476
2022-07-29T08:50:16.061Z,1014.986345
2022-07-29T08:55:15.789Z,1015.006919
2022-07-29T09:00:15.668Z,1014.965776
2022-07-29T09:05:15.578Z,1014.965001
2022-07-29T09:10:15.629Z,1014.906314
2022-07-29T09:15:15.632Z,1014.832584
2022-07-29T09:20:15.574Z,1014.782681
2022-07-29T09:25:15.599Z,1014.820654
2022-07-29T09:30:15.605Z,1014.791567
2022-07-29T09:35:15.698Z,1014.741190
2022-07-29T09:40:15.588Z,1014.706778
2022-07-29T09:45:15.658Z,1014.680752
2022-07-29T09:50:15.628Z,1014.594631
2022-07-29T09:55:18.211Z,1014.555638
2022-07-29T10:00:15.771Z,1014.461280
2022-07-29T10:05:15.611Z,1014.433173
2022-07-29T10:10:15.640Z,1014.349612
2022-07-29T10:15:15.868Z,1014.288503
2022-07-29T10:20:16.586Z,1014.170854
2022-07-29T10:25:15.570Z,1014.184689
2022-07-29T10:30:15.644Z,1014.156118
2022-07-29T10:35:15.615Z,1014.125758
2022-07-29T10:40:15.872Z,1014.152618
2022-07-29T10:45:15.870Z,1014.063631
2022-07-29T10:50:17.224Z,1013.976223
2022-07-29T10:55:15.592Z,1013.912419
2022-07-29T11:00:17.226Z,1013.913619
2022-07-29T11:05:15.591Z,1013.898168
2022-07-29T11:10:15.643Z,1013.893025
2022-07-29T11:15:15.626Z,1013.869315
2022-07-29T11:20:15.585Z,1013.845335
2022-07-29T11:25:16.789Z,1013.786074
2022-07-29T11:30:15.608Z,1013.728506
2022-07-29T11:35:17.269Z,1013.705019
2022-07-29T11:40:15.579Z,1013.569413
2022-07-29T11:45:43.266Z,1013.566212
2022-07-29T11:50:15.629Z,1013.505791
2022-07-29T11:55:15.610Z,1013.460732
2022-07-29T12:00:18.554Z,1013.492695
2022-07-29T12:05:22.295Z,1013.455467
2022-07-29T12:10:30.105Z,1013.456509
2022-07-29T12:15:15.651Z,1013.377972
2022-07-29T12:20:15.478Z,1013.252567
2022-07-29T12:25:32.932Z,1013.229771
2022-07-29T12:30:16.997Z,1013.248346
2022-07-29T12:35:15.572Z,1013.197241
2022-07-29T12:40:15.868Z,1013.103761
2022-07-29T12:45:15.489Z,1013.037720
2022-07-29T12:50:15.779Z,1013.022594
2022-07-29T12:55:15.576Z,1013.024370
2022-07-29T13:00:15.878Z,1013.044508
2022-07-29T13:05:15.661Z,1012.968402
2022-07-29T13:10:15.742Z,1012.925674
2022-07-29T13:15:15.553Z,1012.885453
2022-07-29T13:20:15.735Z,1012.863373
2022-07-29T13:25:15.540Z,1012.829976
2022-07-29T13:30:15.758Z,1012.921576
2022-07-29T13:35:15.546Z,1012.938311
2022-07-29T13:40:15.600Z,1012.866949
2022-07-29T13:45:15.590Z,1012.818721
2022-07-29T13:50:15.596Z,1012.776231
2022-07-29T13:55:15.531Z,1012.778473
2022-07-29T14:00:15.487Z,1012.803792
2022-07-29T14:05:15.588Z,1012.826895
2022-07-29T14:10:19.975Z,1012.812163
2022-07-29T14:15:15.573Z,1012.800753
2022-07-29T14:20:15.620Z,1012.800872
2022-07-29T14:25:15.790Z,1012.755707
2022-07-29T14:30:15.568Z,1012.799970
2022-07-29T14:35:15.695Z,1012.819408
2022-07-29T14:40:15.604Z,1012.806415
2022-07-29T14:45:15.558Z,1012.866110
2022-07-29T14:50:15.836Z,1012.947801
2022-07-29T14:55:19.367Z,1012.959373
2022-07-29T15:00:15.674Z,1012.981257
2022-07-29T15:05:15.904Z,1012.979924
2022-07-29T15:10:18.051Z,1013.022707
2022-07-29T15:15:18.127Z,1013.063086
2022-07-29T15:20:18.118Z,1013.231021
2022-07-29T15:25:18.372Z,1013.257787
2022-07-29T15:30:33.618Z,1013.387304
2022-07-29T15:35:18.076Z,1013.568713
2022-07-29T15:40:18.176Z,1013.656102
2022-07-29T15:45:18.030Z,1013.832503
2022-07-29T15:50:18.108Z,1014.057010
2022-07-29T15:55:18.018Z,1014.200155
2022-07-29T16:00:18.253Z,1014.191610
2022-07-29T16:05:17.997Z,1014.152021
2022-07-29T16:10:18.054Z,1014.010236
2022-07-29T16:15:18.089Z,1013.888707
2022-07-29T16:20:17.929Z,1013.807516
2022-07-29T16:25:18.004Z,1013.752039
2022-07-29T16:30:18.061Z,1013.756450
2022-07-29T16:35:18.024Z,1013.802392
2022-07-29T16:40:17.994Z,1013.839095
2022-07-29T16:45:21.185Z,1013.818764
2022-07-29T16:50:17.901Z,1013.927253
2022-07-29T16:55:17.983Z,1013.912402
2022-07-29T17:00:17.961Z,1013.865514
2022-07-29T17:05:18.053Z,1013.759785
2022-07-29T17:10:17.980Z,1013.719487
2022-07-29T17:15:18.172Z,1013.650292
2022-07-29T17:20:18.173Z,1013.520502
2022-07-29T17:25:20.639Z,1013.389345
2022-07-29T17:30:18.418Z,1013.415072
2022-07-29T17:35:17.982Z,1013.401963
2022-07-29T17:40:17.921Z,1013.408526
2022-07-29T17:45:17.954Z,1013.410448
2022-07-29T17:50:17.960Z,1013.482352
2022-07-29T17:55:18.004Z,1013.579315
2022-07-29T18:00:17.999Z,1013.637622
2022-07-29T18:05:17.964Z,1013.665742
2022-07-29T18:10:17.969Z,1013.704182
2022-07-29T18:15:17.971Z,1013.661391
2022-07-29T18:20:17.980Z,1013.646340
2022-07-29T18:25:17.985Z,1013.550384
2022-07-29T18:30:18.080Z,1013.432859
2022-07-29T18:35:18.071Z,1013.367357
2022-07-29T18:40:18.076Z,1013.325831
2022-07-29T18:45:19.579Z,1013.255803
2022-07-29T18:50:18.034Z,1013.302822
2022-07-29T18:55:18.159Z,1013.379027
2022-07-29T19:00:17.967Z,1013.424481
2022-07-29T19:05:18.100Z,1013.515108
2022-07-29T19:10:18.540Z,1013.514333
2022-07-29T19:15:20.372Z,1013.564664
2022-07-29T19:20:18.181Z,1013.682504
2022-07-29T19:25:18.072Z,1013.790883
2022-07-29T19:30:18.101Z,1013.787948
2022-07-29T19:35:17.945Z,1013.841702
2022-07-29T19:40:17.885Z,1013.880270
2022-07-29T19:45:18.106Z,1013.899503
2022-07-29T19:50:18.059Z,1013.923180
2022-07-29T19:55:19.294Z,1014.019500
2022-07-29T20:00:18.308Z,1014.011049
2022-07-29T20:05:17.876Z,1013.962238
2022-07-29T20:10:17.933Z,1013.939643
2022-07-29T20:15:17.889Z,1013.953691
2022-07-29T20:20:18.506Z,1013.943613
2022-07-29T20:25:17.938Z,1013.925921
2022-07-29T20:30:17.972Z,1013.928801
2022-07-29T20:35:19.990Z,1013.993630
2022-07-29T20:40:18.033Z,1013.972291
2022-07-29T20:45:17.953Z,1014.011139
2022-07-29T20:50:17.985Z,1014.024561
2022-07-29T20:55:17.902Z,1014.065892
2022-07-29T21:00:18.056Z,1014.096009
2022-07-29T21:05:18.105Z,1014.084979
2022-07-29T21:10:17.976Z,1014.141336
2022-07-29T21:15:17.994Z,1014.124223
2022-07-29T21:20:17.957Z,1014.114031
2022-07-29T21:25:17.998Z,1014.130657
2022-07-29T21:30:17.975Z,1014.184238
2022-07-29T21:36:01.719Z,1014.258176
2022-07-29T21:40:17.927Z,1014.270456
2022-07-29T21:45:17.969Z,1014.268353
2022-07-29T21:50:17.946Z,1014.265866
2022-07-29T21:55:18.573Z,1014.289412
2022-07-29T22:00:18.223Z,1014.292339
2022-07-29T22:05:18.286Z,1014.352781
2022-07-29T22:10:17.895Z,1014.468581
2022-07-29T22:15:18.151Z,1014.474364
2022-07-29T22:20:17.931Z,1014.491152
2022-07-29T22:25:17.900Z,1014.513675
2022-07-29T22:30:18.075Z,1014.486532
2022-07-29T22:35:17.876Z,1014.448613
2022-07-29T22:40:17.855Z,1014.476918
2022-07-29T22:45:17.864Z,1014.489900
2022-07-29T22:50:17.935Z,1014.544396
2022-07-29T22:55:17.898Z,1014.529444
2022-07-29T23:00:17.995Z,1014.517230
2022-07-29T23:05:17.864Z,1014.529241
2022-07-29T23:10:17.899Z,1014.586395
2022-07-29T23:15:18.233Z,1014.535797
2022-07-29T23:20:17.903Z,1014.491946
2022-07-29T23:25:18.019Z,1014.502754
2022-07-29T23:30:17.892Z,1014.498973
2022-07-29T23:35:17.902Z,1014.488788
2022-07-29T23:40:17.921Z,1014.489131
2022-07-29T23:45:17.853Z,1014.516646
2022-07-29T23:50:18.029Z,1014.579703
2022-07-29T23:55:36.430Z,1014.657501
